Pagina principale
METAR-TAF:

METAR-TAF

Aeroporti :

La Chaux-de-Fonds, Svizzera

latitudine: 47-05-03N, longitudine: 006-47-37E, altezza: 1027 m

Osservazione

Il bollettino è stato emesso 24 minuti fa, alle 06:20 UTC
Vento 5 kt da sud-ovest, variando fra sud e ovest
Temperature 10°C
Umidità 100%
Pressione 1015 hPa
Visibilità 10 km o più
Cielo coperto ad un'altezza di 700 ft

METAR: LSGC 260620Z AUTO 23005KT 180V270 9999 OVC007 10/10 Q1015

Ora: 08:44 (06:44 UTC)

Previsione

Il bollettino è stato emesso 1 ora e 19 minuti fa, alle 05:25 UTC
Previsione valida dal 26 alle 06 UTC al 26 alle 15 UTC
Vento 7 kt da ovest
Visibilità 10 km o più
Poco nuvoloso ad un'altezza di 600 ft
Nubi sparse ad un'altezza di 1000 ft
Nuvoloso ad un'altezza di 1500 ft
Evoluzione graduale
dal 26 alle 11 UTC al 26 alle 14 UTC
Nubi sparse ad un'altezza di 2500 ft

TAF: LSGC 260525Z 2606/2615 27007KT 9999 FEW006 SCT010 BKN015 BECMG 2611/2614 SCT025

Osservazioni e previsioni meteorologiche di più di 4000 aeroporti (messaggi METAR e TAF).

Le stazioni disponibili sono rappresentate dai dischi gialli e rossi sulla carta.

Puntare il mouse per vedere il nome della stazione.

Clicca sopra per visualizzare le osservazioni e previsioni meteorologiche.

Per cambiare la mappa : fare clic sui pulsanti verdi con una croce nera per ingrandire, il pulsante verde con un trattino per diminuire, o sulla freccia verde per le mappe adiacenti.


METAR-TAF: